LavenderCAM.net
Leatherhead Weather
 
Leatherhead Weather
 
 





Aviation weather for

London Heathrow (EGLL) and London Gatwick (EGKK)



London Heathrow (EGLL) METAR / Surface Actual
London / Heathrow Airport, United Kingdom (EGLL) 51-29N 000-27W 0M
Jul 23, 2021 - 10:20 AM EDT / 2021.07.23 1420 UTC
Wind: from the ENE (070 degrees) at 15 MPH (13 KT) (direction variable):0
Visibility: greater than 7 mile(s):0
Temperature: 75 F (24 C)
Dew Point: 59 F (15 C)
Relative Humidity: 57%
Pressure (altimeter): 29.97 in. Hg (1015 hPa)
ob: EGLL 231420Z AUTO 07013KT 040V110 9999 NCD 24/15 Q1015
cycle: 14
London Heathrow (EGLL) TAF / Forecast
2021/07/23 12:09
TAF EGLL 231053Z 2312/2418 08012KT 9999 FEW030 PROB40 
      TEMPO 2400/2406 BKN012 PROB30 
      TEMPO 2400/2406 06015G25KT PROB30 
      TEMPO 2403/2406 7000 SHRA 
      TEMPO 2406/2412 6000 SHRA PROB30 
      TEMPO 2406/2411 VRB18G30KT 2000 +TSRAGR BKN010 BKN045CB PROB30 
      TEMPO 2411/2418 2000 +TSRAGR BKN012 BKN020CB


London Gatwick (EGKK) METAR / Surface Actual
London / Gatwick Airport, United Kingdom (EGKK) 51-09N 000-11W 0M
Jul 23, 2021 - 10:20 AM EDT / 2021.07.23 1420 UTC
Wind: from the E (080 degrees) at 15 MPH (13 KT):0
Visibility: greater than 7 mile(s):0
Temperature: 71 F (22 C)
Dew Point: 59 F (15 C)
Relative Humidity: 64%
Pressure (altimeter): 29.94 in. Hg (1014 hPa)
ob: EGKK 231420Z 08013KT CAVOK 22/15 Q1014
cycle: 14
London Gatwick (EGKK) TAF / Forecast
2021/07/23 12:09
TAF TAF EGKK 231102Z 2312/2418 07011KT 9999 FEW030 PROB40 
      TEMPO 2321/2404 07015G25KT PROB30 
      TEMPO 2323/2405 7000 SHRA BKN012 PROB30 
      TEMPO 2404/2410 VRB18G30KT 
      TEMPO 2405/2410 7000 SHRA BKN014 PROB40 
      TEMPO 2405/2410 2000 +TSRAGR BKN009 BKN045CB 
      BECMG 2409/2412 VRB05KT PROB30 
      TEMPO 2410/2418 2000 +TSRAGR BKN014CB